Terminal Aerodrome Forecast
Issued by NWS Wichita, KS

Home | Current Version | Previous Version | Graphics & Text | Print | Product List | Glossary On
Versions: 1 2 3 4 5 6 7 8 9 10 11 12 13 14 15 16 17 18 19 20 21 22 23 24 25
000
FTUS43 KICT 171137
TAFICT
TAF
KICT 171137Z 1712/1812 01010KT P6SM VCSH SCT015 OVC080
      TEMPO 1712/1716 BKN015
     FM171600 04009KT P6SM VCTS BKN015CB
     FM171900 07008KT P6SM VCTS BKN020CB
     FM172000 09007KT P6SM VCTS BKN035CB
     FM180400 12006KT P6SM VCTS BKN030CB
     FM180600 15005KT P6SM BKN025=

USA.gov is the U.S. government's official web portal to all federal, state and local government web resources and services.